Currituck — AEFR — position and weather

sailwx.info

Track history (hours):
 
Tides and Currents Weather Stations Pressure Air Temp Water Temp Dewpoint Dewpoint Depression Visibility Wind Speed Wind Dir Waves Ship Positions

Currituck

Last reported at 2014-Sep-20 07:18 UTC. Time now 2014-Sep-20 08:01 UTC.
Position N 40°25' W 074°00'.

Length 45 m; draft 3 m.

Type: Dredging. MMSI: 369970446.

Date/timePositionNaut miles runAvg speedWind from/ knotsBaromVisibWave heightAir tempDewpointWater temp
2014-Sep-20 07:18N 40°25' W 074°00'4 4.6
2014-Sep-20 06:23N 40°29' W 074°00'0 0.0
2014-Sep-20 05:26N 40°29' W 074°00'4 4.4
2014-Sep-20 04:28N 40°25' W 074°00'4 4.6
2014-Sep-20 03:32N 40°29' W 074°00'1 0.7
2014-Sep-20 02:27N 40°29' W 074°01'4 4.5
2014-Sep-20 01:33N 40°25' W 074°00'4 4.0
2014-Sep-20 00:32N 40°29' W 074°01'1 0.1
2014-Sep-19 18:30N 40°29' W 074°01'4 2.0
2014-Sep-19 16:28N 40°25' W 074°00'4 4.0
2014-Sep-19 15:25N 40°29' W 074°00'1 0.8
2014-Sep-19 14:09N 40°29' W 074°01'4 7.1
2014-Sep-19 13:31N 40°24' W 073°59'4 3.3
2014-Sep-19 12:13N 40°28' W 074°01'1 0.1
2014-Sep-19 03:26N 40°29' W 074°00'1 0.4
2014-Sep-19 00:04N 40°28' W 074°01'5 1.3
2014-Sep-18 20:15N 40°23' W 074°01'6 5.6
2014-Sep-18 19:10N 40°29' W 074°00'0 0.0
2014-Sep-18 15:16N 40°29' W 074°00'1 1.0
2014-Sep-18 14:10N 40°28' W 074°01'5 6.8
2014-Sep-18 13:30N 40°24' W 073°59'0 0.3
2014-Sep-18 12:33N 40°24' W 073°59'3 2.8
2014-Sep-18 11:33N 40°27' W 073°59'2 1.8
2014-Sep-18 10:33N 40°26' W 074°01'3 1.4
2014-Sep-18 08:30N 40°29' W 074°00'7 1.7
2014-Sep-18 04:25N 40°22' W 073°59'0 0.1
2014-Sep-18 00:06N 40°22' W 073°59'2 0.6
2014-Sep-17 21:18N 40°23' W 073°59'6 6.4
2014-Sep-17 20:24N 40°29' W 074°00'0 0.2
2014-Sep-17 19:29N 40°29' W 074°00'0 0.0
2014-Sep-17 08:14N 40°29' W 074°01'0 0.4
2014-Sep-17 07:07N 40°29' W 074°01'4 6.8
2014-Sep-17 06:30N 40°25' W 073°60'2 0.6
2014-Sep-17 03:33N 40°26' W 073°59'2 0.4
2014-Sep-16 23:06N 40°24' W 073°59'1 1.9
2014-Sep-16 22:29N 40°23' W 073°59'6 1.4
2014-Sep-16 18:29N 40°29' W 074°01'3 0.5
2014-Sep-16 11:19N 40°26' W 073°59'2 1.5
2014-Sep-16 10:15N 40°25' W 073°60'2 2.0
2014-Sep-16 09:24N 40°23' W 073°59'3 1.3
2014-Sep-16 07:15N 40°26' W 073°59'3 1.6
2014-Sep-16 05:23N 40°23' W 073°59'0 0.1
2014-Sep-16 04:15N 40°23' W 073°59'6 7.2
2014-Sep-16 03:26N 40°28' W 074°02'1 1.2
2014-Sep-16 02:25N 40°29' W 074°00'5 5.6
2014-Sep-16 01:33N 40°24' W 073°59'0 0.3
2014-Sep-16 00:28N 40°24' W 073°59'3 3.8
2014-Sep-15 23:33N 40°28' W 073°59'2 1.4
2014-Sep-15 22:30N 40°27' W 074°01'5 2.3
2014-Sep-15 20:30N 40°23' W 073°59'0 0.0
2014-Sep-15 17:06N 40°23' W 073°59'0 0.7
2014-Sep-15 16:26N 40°23' W 073°59'6 6.8
2014-Sep-15 15:33N 40°29' W 074°01'1 0.7
2014-Sep-15 14:32N 40°29' W 074°00'5 4.5
2014-Sep-15 13:27N 40°24' W 073°59'2 2.6
2014-Sep-15 12:32N 40°26' W 074°01'2 1.8
2014-Sep-15 11:25N 40°28' W 073°59'3 3.7
2014-Sep-15 10:31N 40°25' W 073°60'0 0.2
2014-Sep-15 09:19N 40°25' W 073°60'3 3.9
2014-Sep-15 08:28N 40°28' W 073°59'3 2.5
2014-Sep-15 07:10N 40°25' W 074°00'4 2.2
2014-Sep-15 05:15N 40°29' W 074°00'1 0.6
2014-Sep-15 03:23N 40°29' W 074°01'1 0.8
2014-Sep-15 02:19N 40°29' W 074°00'0 0.1
2014-Sep-15 00:06N 40°29' W 073°60'4 2.7
2014-Sep-14 22:28N 40°25' W 073°60'4 2.8
2014-Sep-14 21:05N 40°28' W 074°01'0 0.2
2014-Sep-14 18:28N 40°29' W 074°01'7 0.6
2014-Sep-14 06:23N 40°22' W 073°59'0 0.0
2014-Sep-14 05:11N 40°22' W 073°59'0 0.0
2014-Sep-14 04:30N 40°22' W 073°59'2 0.2
2014-Sep-13 19:26N 40°24' W 073°59'0 0.0
2014-Sep-13 18:33N 40°24' W 073°59'0 0.0
2014-Sep-13 17:28N 40°24' W 073°59'5 5.8
2014-Sep-13 16:34N 40°29' W 074°00'0 0.3
2014-Sep-13 15:10N 40°29' W 073°60'4 5.2
2014-Sep-13 14:18N 40°24' W 073°59'1 1.6
2014-Sep-13 13:28N 40°25' W 074°00'2 1.7
2014-Sep-13 12:32N 40°26' W 073°59'3 2.7
2014-Sep-13 11:29N 40°29' W 073°60'5 4.4
2014-Sep-13 10:24N 40°24' W 073°59'0 0.1
2014-Sep-13 09:24N 40°24' W 073°59'5 5.7
2014-Sep-13 08:33N 40°29' W 074°01'1 0.4
2014-Sep-13 07:08N 40°29' W 074°01'4 4.8
2014-Sep-13 06:12N 40°25' W 073°60'2 2.7
2014-Sep-13 05:33N 40°23' W 073°59'2 1.5
2014-Sep-13 04:31N 40°24' W 073°59'2 1.7
2014-Sep-13 03:29N 40°26' W 073°59'2 2.2
2014-Sep-13 02:33N 40°27' W 074°01'5 4.6
2014-Sep-13 01:33N 40°23' W 073°59'1 1.1
2014-Sep-13 00:31N 40°24' W 073°59'2 2.0
2014-Sep-12 23:31N 40°26' W 073°59'2 1.2
2014-Sep-12 22:10N 40°25' W 073°60'4 1.8
2014-Sep-12 20:08N 40°28' W 074°01'3 3.9
2014-Sep-12 19:27N 40°27' W 073°59'2 1.1
2014-Sep-12 17:32N 40°25' W 074°00'2 1.2
2014-Sep-12 16:14N 40°26' W 073°59'3 1.6
2014-Sep-12 14:20N 40°23' W 073°59'2 1.7
2014-Sep-12 13:16N 40°25' W 073°60'3 4.5
2014-Sep-12 12:33N 40°28' W 073°59'4 1.8
2014-Sep-12 10:32N 40°24' W 073°59'5 3.8
2014-Sep-12 09:15N 40°29' W 074°01'1 1.2
2014-Sep-12 08:19N 40°29' W 074°00'1 0.4
2014-Sep-12 06:04N 40°29' W 074°01'4 2.6
2014-Sep-12 04:25N 40°25' W 073°60'3 0.9
2014-Sep-12 01:12N 40°22' W 073°59'4 0.5
2014-Sep-11 16:23N 40°26' W 073°59'3 3.3
2014-Sep-11 15:25N 40°28' W 074°02'1 0.7
2014-Sep-11 14:28N 40°28' W 074°01'3 3.2
2014-Sep-11 13:33N 40°25' W 074°00'4 3.6
2014-Sep-11 12:33N 40°29' W 073°60'1 1.2
2014-Sep-11 11:30N 40°29' W 074°01'5 5.1
2014-Sep-11 10:33N 40°24' W 073°59'2 1.5
2014-Sep-11 09:28N 40°25' W 074°00'2 2.4
2014-Sep-11 08:33N 40°27' W 073°59'2 1.6
2014-Sep-11 07:26N 40°26' W 074°01'3 3.4
2014-Sep-11 06:32N 40°23' W 073°59'2 1.5
2014-Sep-11 05:23N 40°22' W 073°59'0 0.0
2014-Sep-11 04:22N 40°22' W 073°59'0 0.0
2014-Sep-11 03:19N 40°22' W 073°59'0 0.0
2014-Sep-11 02:20N 40°22' W 073°59'0 0.0
2014-Sep-11 01:33N 40°22' W 073°59'8 1.3
2014-Sep-10 19:11N 40°29' W 074°03'6 9.6
2014-Sep-10 18:32N 40°36' W 074°03'6 5.8
2014-Sep-10 17:33N 40°41' W 074°04'0 0.0
2014-Sep-10 16:33N 40°41' W 074°04'0 0.0
2014-Sep-10 15:33N 40°41' W 074°04'0 0.0
2014-Sep-10 14:34N 40°41' W 074°04'0 0.0
2014-Sep-10 13:33N 40°41' W 074°04'0 0.0
2014-Sep-10 10:21N 40°41' W 074°04'0 0.0
2014-Sep-10 09:29N 40°41' W 074°04'0 0.0
2014-Sep-10 08:31N 40°41' W 074°04'  
Track history (hours):
 
Tides and Currents Weather Stations Pressure Air Temp Water Temp Dewpoint Dewpoint Depression Visibility Wind Speed Wind Dir Waves Ship Positions

Currituck

Last reported at 2014-Sep-20 07:18 UTC. Time now 2014-Sep-20 08:01 UTC.
Position N 40°25' W 074°00'.

Length 45 m; draft 3 m.

Type: Dredging. MMSI: 369970446.

Date/timePositionNaut miles runAvg speedWind from/ knotsBaromVisibWave heightAir tempDewpointWater temp
2014-Sep-20 07:18N 40°25' W 074°00'4 4.6
2014-Sep-20 06:23N 40°29' W 074°00'0 0.0
2014-Sep-20 05:26N 40°29' W 074°00'4 4.4
2014-Sep-20 04:28N 40°25' W 074°00'4 4.6
2014-Sep-20 03:32N 40°29' W 074°00'1 0.7
2014-Sep-20 02:27N 40°29' W 074°01'4 4.5
2014-Sep-20 01:33N 40°25' W 074°00'4 4.0
2014-Sep-20 00:32N 40°29' W 074°01'1 0.1
2014-Sep-19 18:30N 40°29' W 074°01'4 2.0
2014-Sep-19 16:28N 40°25' W 074°00'4 4.0
2014-Sep-19 15:25N 40°29' W 074°00'1 0.8
2014-Sep-19 14:09N 40°29' W 074°01'4 7.1
2014-Sep-19 13:31N 40°24' W 073°59'4 3.3
2014-Sep-19 12:13N 40°28' W 074°01'1 0.1
2014-Sep-19 03:26N 40°29' W 074°00'1 0.4
2014-Sep-19 00:04N 40°28' W 074°01'5 1.3
2014-Sep-18 20:15N 40°23' W 074°01'6 5.6
2014-Sep-18 19:10N 40°29' W 074°00'0 0.0
2014-Sep-18 15:16N 40°29' W 074°00'1 1.0
2014-Sep-18 14:10N 40°28' W 074°01'5 6.8
2014-Sep-18 13:30N 40°24' W 073°59'0 0.3
2014-Sep-18 12:33N 40°24' W 073°59'3 2.8
2014-Sep-18 11:33N 40°27' W 073°59'2 1.8
2014-Sep-18 10:33N 40°26' W 074°01'3 1.4
2014-Sep-18 08:30N 40°29' W 074°00'7 1.7
2014-Sep-18 04:25N 40°22' W 073°59'0 0.1
2014-Sep-18 00:06N 40°22' W 073°59'2 0.6
2014-Sep-17 21:18N 40°23' W 073°59'6 6.4
2014-Sep-17 20:24N 40°29' W 074°00'0 0.2
2014-Sep-17 19:29N 40°29' W 074°00'0 0.0
2014-Sep-17 08:14N 40°29' W 074°01'0 0.4
2014-Sep-17 07:07N 40°29' W 074°01'4 6.8
2014-Sep-17 06:30N 40°25' W 073°60'2 0.6
2014-Sep-17 03:33N 40°26' W 073°59'2 0.4
2014-Sep-16 23:06N 40°24' W 073°59'1 1.9
2014-Sep-16 22:29N 40°23' W 073°59'6 1.4
2014-Sep-16 18:29N 40°29' W 074°01'3 0.5
2014-Sep-16 11:19N 40°26' W 073°59'2 1.5
2014-Sep-16 10:15N 40°25' W 073°60'2 2.0
2014-Sep-16 09:24N 40°23' W 073°59'3 1.3
2014-Sep-16 07:15N 40°26' W 073°59'3 1.6
2014-Sep-16 05:23N 40°23' W 073°59'0 0.1
2014-Sep-16 04:15N 40°23' W 073°59'6 7.2
2014-Sep-16 03:26N 40°28' W 074°02'1 1.2
2014-Sep-16 02:25N 40°29' W 074°00'5 5.6
2014-Sep-16 01:33N 40°24' W 073°59'0 0.3
2014-Sep-16 00:28N 40°24' W 073°59'3 3.8
2014-Sep-15 23:33N 40°28' W 073°59'2 1.4
2014-Sep-15 22:30N 40°27' W 074°01'5 2.3
2014-Sep-15 20:30N 40°23' W 073°59'0 0.0
2014-Sep-15 17:06N 40°23' W 073°59'0 0.7
2014-Sep-15 16:26N 40°23' W 073°59'6 6.8
2014-Sep-15 15:33N 40°29' W 074°01'1 0.7
2014-Sep-15 14:32N 40°29' W 074°00'5 4.5
2014-Sep-15 13:27N 40°24' W 073°59'2 2.6
2014-Sep-15 12:32N 40°26' W 074°01'2 1.8
2014-Sep-15 11:25N 40°28' W 073°59'3 3.7
2014-Sep-15 10:31N 40°25' W 073°60'0 0.2
2014-Sep-15 09:19N 40°25' W 073°60'3 3.9
2014-Sep-15 08:28N 40°28' W 073°59'3 2.5
2014-Sep-15 07:10N 40°25' W 074°00'4 2.2
2014-Sep-15 05:15N 40°29' W 074°00'1 0.6
2014-Sep-15 03:23N 40°29' W 074°01'1 0.8
2014-Sep-15 02:19N 40°29' W 074°00'0 0.1
2014-Sep-15 00:06N 40°29' W 073°60'4 2.7
2014-Sep-14 22:28N 40°25' W 073°60'4 2.8
2014-Sep-14 21:05N 40°28' W 074°01'0 0.2
2014-Sep-14 18:28N 40°29' W 074°01'7 0.6
2014-Sep-14 06:23N 40°22' W 073°59'0 0.0
2014-Sep-14 05:11N 40°22' W 073°59'0 0.0
2014-Sep-14 04:30N 40°22' W 073°59'2 0.2
2014-Sep-13 19:26N 40°24' W 073°59'0 0.0
2014-Sep-13 18:33N 40°24' W 073°59'0 0.0
2014-Sep-13 17:28N 40°24' W 073°59'5 5.8
2014-Sep-13 16:34N 40°29' W 074°00'0 0.3
2014-Sep-13 15:10N 40°29' W 073°60'4 5.2
2014-Sep-13 14:18N 40°24' W 073°59'1 1.6
2014-Sep-13 13:28N 40°25' W 074°00'2 1.7
2014-Sep-13 12:32N 40°26' W 073°59'3 2.7
2014-Sep-13 11:29N 40°29' W 073°60'5 4.4
2014-Sep-13 10:24N 40°24' W 073°59'0 0.1
2014-Sep-13 09:24N 40°24' W 073°59'5 5.7
2014-Sep-13 08:33N 40°29' W 074°01'1 0.4
2014-Sep-13 07:08N 40°29' W 074°01'4 4.8
2014-Sep-13 06:12N 40°25' W 073°60'2 2.7
2014-Sep-13 05:33N 40°23' W 073°59'2 1.5
2014-Sep-13 04:31N 40°24' W 073°59'2 1.7
2014-Sep-13 03:29N 40°26' W 073°59'2 2.2
2014-Sep-13 02:33N 40°27' W 074°01'5 4.6
2014-Sep-13 01:33N 40°23' W 073°59'1 1.1
2014-Sep-13 00:31N 40°24' W 073°59'2 2.0
2014-Sep-12 23:31N 40°26' W 073°59'2 1.2
2014-Sep-12 22:10N 40°25' W 073°60'4 1.8
2014-Sep-12 20:08N 40°28' W 074°01'3 3.9
2014-Sep-12 19:27N 40°27' W 073°59'2 1.1
2014-Sep-12 17:32N 40°25' W 074°00'2 1.2
2014-Sep-12 16:14N 40°26' W 073°59'3 1.6
2014-Sep-12 14:20N 40°23' W 073°59'2 1.7
2014-Sep-12 13:16N 40°25' W 073°60'3 4.5
2014-Sep-12 12:33N 40°28' W 073°59'4 1.8
2014-Sep-12 10:32N 40°24' W 073°59'5 3.8
2014-Sep-12 09:15N 40°29' W 074°01'1 1.2
2014-Sep-12 08:19N 40°29' W 074°00'1 0.4
2014-Sep-12 06:04N 40°29' W 074°01'4 2.6
2014-Sep-12 04:25N 40°25' W 073°60'3 0.9
2014-Sep-12 01:12N 40°22' W 073°59'4 0.5
2014-Sep-11 16:23N 40°26' W 073°59'3 3.3
2014-Sep-11 15:25N 40°28' W 074°02'1 0.7
2014-Sep-11 14:28N 40°28' W 074°01'3 3.2
2014-Sep-11 13:33N 40°25' W 074°00'4 3.6
2014-Sep-11 12:33N 40°29' W 073°60'1 1.2
2014-Sep-11 11:30N 40°29' W 074°01'5 5.1
2014-Sep-11 10:33N 40°24' W 073°59'2 1.5
2014-Sep-11 09:28N 40°25' W 074°00'2 2.4
2014-Sep-11 08:33N 40°27' W 073°59'2 1.6
2014-Sep-11 07:26N 40°26' W 074°01'3 3.4
2014-Sep-11 06:32N 40°23' W 073°59'2 1.5
2014-Sep-11 05:23N 40°22' W 073°59'0 0.0
2014-Sep-11 04:22N 40°22' W 073°59'0 0.0
2014-Sep-11 03:19N 40°22' W 073°59'0 0.0
2014-Sep-11 02:20N 40°22' W 073°59'0 0.0
2014-Sep-11 01:33N 40°22' W 073°59'8 1.3
2014-Sep-10 19:11N 40°29' W 074°03'6 9.6
2014-Sep-10 18:32N 40°36' W 074°03'6 5.8
2014-Sep-10 17:33N 40°41' W 074°04'0 0.0
2014-Sep-10 16:33N 40°41' W 074°04'0 0.0
2014-Sep-10 15:33N 40°41' W 074°04'0 0.0
2014-Sep-10 14:34N 40°41' W 074°04'0 0.0
2014-Sep-10 13:33N 40°41' W 074°04'0 0.0
2014-Sep-10 10:21N 40°41' W 074°04'0 0.0
2014-Sep-10 09:29N 40°41' W 074°04'0 0.0
2014-Sep-10 08:31N 40°41' W 074°04'  

Dump ship's entire track history